METAR AND TAF INFORMATION
METAR FOR EDDG
ADDS - METARS form results

(1635 UTC 19 August 2019)
Data provider http://aviationweather.gov/metar/data/
 
METAR text: EDDG 191620Z 23010KT CAVOK 22/10 Q1016 NOSIG
Conditions at: EDDG (MUENSTER/OSNABRU, DE) observed 1620 UTC 19 August 2019
Temperature: 22.0°C (72°F)
Dewpoint: 10.0°C (50°F) [RH = 46%]
Pressure (altimeter): 30.00 inches Hg (1016.0 mb)
Winds: from the SW (230 degrees) at 12 MPH (10 knots; 5.1 m/s)
Visibility: 6 or more miles (10+ km)
Ceiling: ceiling and visibility are OK
Clouds: unknown
Weather: no significant weather observed at this time

METAR text: EDDG 191550Z 24010KT 200V270 CAVOK 23/10 Q1016 NOSIG
Conditions at: EDDG (MUENSTER/OSNABRU, DE) observed 1550 UTC 19 August 2019
Temperature: 23.0°C (73°F)
Dewpoint: 10.0°C (50°F) [RH = 44%]
Pressure (altimeter): 30.00 inches Hg (1016.0 mb)
Winds: from the WSW (240 degrees) at 12 MPH (10 knots; 5.1 m/s)
Visibility: 6 or more miles (10+ km)
Ceiling: ceiling and visibility are OK
Clouds: unknown
Weather: no significant weather observed at this time

Forecast for: EDDG (MUENSTER/OSNABRU, DE)
Text: TAF EDDG 191100Z 1912/2012 23012KT CAVOK
Forecast period: 1200 to 1700 UTC 19 August 2019
Forecast type: FROM: standard forecast or significant change
Winds: from the SW (230 degrees) at 14 MPH (12 knots; 6.2 m/s)
Visibility: 6 or more miles 10+ km)
Ceiling: unknown
Clouds: missing
Weather: NSW  (no significant weather)
Text: BECMG 1917/1920 18004KT
Forecast period: 1700 UTC 19 August 2019 to 0700 UTC 20 August 2019
Forecast type: BECOMING: Conditions expected to become as follows by 2000 UTC 19 August 2019
Winds: from the S (180 degrees) at 5 MPH (4 knots; 2.1 m/s)
Visibility: 6 or more miles 10+ km)
Ceiling: unknown
Clouds: missing
Weather: NSW  (no significant weather)
Text: BECMG 2007/2010 23009KT
Forecast period: 0700 to 1200 UTC 20 August 2019
Forecast type: BECOMING: Conditions expected to become as follows by 1000 UTC 20 August 2019
Winds: from the SW (230 degrees) at 10 MPH (9 knots; 4.6 m/s)
Visibility: 6 or more miles 10+ km)
Ceiling: unknown
Clouds: missing
Weather: NSW  (no significant weather)

 AIRPORT MAP

 RUNWAY INFORMATION
Runway 07 Runway length 7119 ft Runway width 148 ft
Runway elevation 156 ft Runway displaced threshold 0 ft Runway heading 71
Runway 25 Runway length 7119 ft Runway width 148 ft
Runway elevation 159 ft Runway displaced threshold 656 ft Runway heading 251

 AIRPORT FREQUENCIES
Type AFIS Name LANGEN INF Frequency 123.525 MHZ
Type ATIS Name ATIS Frequency 127.175 MHZ
Type GND Name GND Frequency 121.875 MHZ
Type RDR Name LANGEN RAD Frequency 129.3 MHZ
Type TWR Name TWR Frequency 129.8 MHZ

 AIRPORT NEAR NAVIGATION AIDS
Type DME Name Munster Frequency 114050 KHZ
Type NDB Name Greven Frequency 305 KHZ
Type NDB Name Munster Frequency 371 KHZ



Powered by Virtual Airlines Manager [v2.6.2]